QTR23V OTHH-EGLL
Flight info
| Callsign | QTR23V |
|---|---|
| Flight time | N/A |
| Altitude | 29000 |
| Route | DATRI2W/34L DATRI L564 MIGMA/N0518F280 M550 MEVDO Y511 ITRUX/N0506F340 Y511 KITUB/N0499F360 Y511 PMA Z712 WEJ L677 CVO L617 TANSA/N0491F380 UL613 YNN UL611 TUMBO DCT RODON DCT VAKSU DCT ROTAR DCT SAFFA DCT ELMUR DCT RIPUS DCT DITON DCT HOC DCT LUL DCT RLP DCT ROTSI DCT KOTUN DCT NINAL DCT ABNUR DCT DIMAL DCT ALESO |
| Aircraft | A359/H-SDE2E3GHIJ1J3J4J5LM1ORWXY/LB1D1 |
Departure
| Time | 2026-05-04 09:51 |
|---|---|
| Airport | Hamad International Airport (OTHH) |
Arrival
| Time | N/A |
|---|---|
| Airport | London Heathrow Airport (EGLL) |
| Time | Latitude | Longitude | Altitude | Speed | Heading |
|---|---|---|---|---|---|
| 2026-05-04 09:17 | 25.26148 | 51.61133 | 28 ft | 0 kts | 157° |
| 2026-05-04 09:39 | 25.26125 | 51.61143 | 28 ft | 4 kts | 157° |
| 2026-05-04 09:39 | 25.26095 | 51.61157 | 28 ft | 4 kts | 157° |
| 2026-05-04 09:39 | 25.26148 | 51.61133 | 28 ft | 0 kts | 157° |
| 2026-05-04 09:40 | 25.26220 | 51.61048 | 29 ft | 33 kts | 85° |
| 2026-05-04 09:40 | 25.26209 | 51.61015 | 29 ft | 0 kts | 246° |
| 2026-05-04 09:41 | 25.26255 | 51.61072 | 29 ft | 15 kts | 220° |
| 2026-05-04 09:42 | 25.26326 | 51.61060 | 28 ft | 0 kts | 158° |
| 2026-05-04 09:44 | 25.26325 | 51.61061 | 28 ft | 2 kts | 158° |
| 2026-05-04 09:44 | 25.26276 | 51.61078 | 28 ft | 10 kts | 171° |
| 2026-05-04 09:46 | 25.25880 | 51.60713 | 27 ft | 11 kts | 158° |
| 2026-05-04 09:46 | 25.25833 | 51.60734 | 27 ft | 11 kts | 158° |
| 2026-05-04 09:46 | 25.25735 | 51.60778 | 27 ft | 12 kts | 158° |
| 2026-05-04 09:47 | 25.25685 | 51.60793 | 28 ft | 11 kts | 180° |
| 2026-05-04 09:47 | 25.25625 | 51.60746 | 27 ft | 11 kts | 232° |
| 2026-05-04 09:49 | 25.25654 | 51.60501 | 23 ft | 1 kts | 337° |
| 2026-05-04 09:49 | 25.25753 | 51.60458 | 24 ft | 41 kts | 338° |
| 2026-05-04 09:49 | 25.26203 | 51.60259 | 28 ft | 96 kts | 338° |
| 2026-05-04 09:51 | 25.32701 | 51.57500 | 1678 ft | 193 kts | 339° |
| 2026-05-04 09:51 | 25.33985 | 51.56949 | 1888 ft | 202 kts | 339° |
| 2026-05-04 09:51 | 25.35304 | 51.56363 | 2128 ft | 211 kts | 338° |
| 2026-05-04 09:51 | 25.36702 | 51.55725 | 2331 ft | 223 kts | 338° |
| 2026-05-04 09:52 | 25.38180 | 51.55034 | 2502 ft | 238 kts | 338° |
| 2026-05-04 09:52 | 25.39747 | 51.54306 | 2715 ft | 250 kts | 338° |
| 2026-05-04 09:52 | 25.41380 | 51.53561 | 3107 ft | 254 kts | 339° |
| 2026-05-04 09:52 | 25.43011 | 51.52833 | 3624 ft | 252 kts | 339° |
| 2026-05-04 09:53 | 25.44635 | 51.52106 | 4111 ft | 252 kts | 339° |
| 2026-05-04 09:53 | 25.46252 | 51.51340 | 4619 ft | 253 kts | 334° |
| 2026-05-04 09:53 | 25.47636 | 51.50124 | 5029 ft | 260 kts | 310° |
| 2026-05-04 09:53 | 25.48379 | 51.48272 | 5418 ft | 271 kts | 282° |
| 2026-05-04 09:54 | 25.48427 | 51.46192 | 5804 ft | 278 kts | 271° |
| 2026-05-04 09:54 | 25.48307 | 51.44035 | 6241 ft | 280 kts | 270° |
| 2026-05-04 09:54 | 25.48186 | 51.41890 | 6708 ft | 279 kts | 270° |
| 2026-05-04 09:54 | 25.48076 | 51.39734 | 7136 ft | 280 kts | 270° |
| 2026-05-04 09:55 | 25.47973 | 51.37571 | 7575 ft | 281 kts | 270° |
| 2026-05-04 09:55 | 25.47873 | 51.35413 | 8068 ft | 280 kts | 270° |
| 2026-05-04 09:55 | 25.47777 | 51.33285 | 8533 ft | 281 kts | 270° |
| 2026-05-04 09:55 | 25.47680 | 51.31106 | 8931 ft | 284 kts | 270° |
| 2026-05-04 09:56 | 25.47468 | 51.28924 | 9363 ft | 287 kts | 259° |
| 2026-05-04 09:56 | 25.46580 | 51.26933 | 9823 ft | 294 kts | 232° |
| 2026-05-04 09:56 | 25.44925 | 51.25590 | 10167 ft | 304 kts | 205° |
| 2026-05-04 09:56 | 25.42793 | 51.25178 | 10337 ft | 319 kts | 183° |
| 2026-05-04 09:57 | 25.40560 | 51.25213 | 10541 ft | 329 kts | 180° |
| 2026-05-04 09:57 | 25.38235 | 51.25288 | 10721 ft | 339 kts | 180° |
| 2026-05-04 09:57 | 25.35842 | 51.25352 | 10906 ft | 349 kts | 181° |
| 2026-05-04 09:57 | 25.33380 | 51.25400 | 11077 ft | 358 kts | 181° |
| 2026-05-04 09:58 | 25.30857 | 51.25439 | 11283 ft | 367 kts | 181° |
| 2026-05-04 09:58 | 25.28278 | 51.25502 | 11451 ft | 376 kts | 178° |
| 2026-05-04 09:58 | 25.25670 | 51.26060 | 11623 ft | 387 kts | 163° |
| 2026-05-04 10:00 | 25.07125 | 51.33883 | 13285 ft | 419 kts | 160° |
| 2026-05-04 10:00 | 25.04400 | 51.35038 | 13658 ft | 419 kts | 160° |
| 2026-05-04 10:02 | 24.86080 | 51.45140 | 15783 ft | 429 kts | 146° |
| 2026-05-04 10:04 | 24.67922 | 51.55921 | 17828 ft | 428 kts | 185° |
| 2026-05-04 10:04 | 24.64971 | 51.55550 | 18108 ft | 427 kts | 191° |
| 2026-05-04 10:04 | 24.62078 | 51.54950 | 18349 ft | 428 kts | 193° |
| 2026-05-04 10:04 | 24.59166 | 51.54236 | 18557 ft | 430 kts | 194° |
| 2026-05-04 10:05 | 24.56249 | 51.53486 | 18795 ft | 431 kts | 194° |
| 2026-05-04 10:05 | 24.53321 | 51.52736 | 19017 ft | 433 kts | 194° |
| 2026-05-04 10:05 | 24.50383 | 51.52002 | 19277 ft | 433 kts | 194° |
| 2026-05-04 10:05 | 24.47430 | 51.51283 | 19513 ft | 434 kts | 194° |
| 2026-05-04 10:06 | 24.44466 | 51.50574 | 19733 ft | 436 kts | 193° |
| 2026-05-04 10:06 | 24.41498 | 51.49873 | 19955 ft | 437 kts | 193° |
| 2026-05-04 10:06 | 24.38512 | 51.49171 | 20150 ft | 439 kts | 193° |
| 2026-05-04 10:08 | 24.20427 | 51.45323 | 21472 ft | 447 kts | 184° |
| 2026-05-04 10:08 | 24.17310 | 51.45196 | 21694 ft | 449 kts | 183° |
| 2026-05-04 10:08 | 24.14178 | 51.45157 | 21902 ft | 450 kts | 181° |
| 2026-05-04 10:08 | 24.11031 | 51.45166 | 22095 ft | 452 kts | 181° |
| 2026-05-04 10:09 | 24.07881 | 51.45194 | 22307 ft | 453 kts | 181° |
| 2026-05-04 10:09 | 24.04768 | 51.45224 | 22502 ft | 454 kts | 181° |
| 2026-05-04 10:09 | 24.01601 | 51.45250 | 22692 ft | 455 kts | 181° |
| 2026-05-04 10:09 | 23.98417 | 51.45270 | 22879 ft | 457 kts | 181° |
| 2026-05-04 10:10 | 23.95230 | 51.45286 | 23075 ft | 458 kts | 181° |
| 2026-05-04 10:10 | 23.92031 | 51.45298 | 23257 ft | 459 kts | 181° |
| 2026-05-04 10:10 | 23.88874 | 51.45308 | 23442 ft | 460 kts | 181° |
| 2026-05-04 10:10 | 23.85667 | 51.45318 | 23578 ft | 461 kts | 181° |
| 2026-05-04 10:11 | 23.82445 | 51.45328 | 23715 ft | 463 kts | 181° |
| 2026-05-04 10:11 | 23.79207 | 51.45338 | 23847 ft | 464 kts | 181° |
| 2026-05-04 10:11 | 23.75968 | 51.45348 | 24006 ft | 465 kts | 181° |
| 2026-05-04 10:11 | 23.72771 | 51.45359 | 24148 ft | 466 kts | 181° |
| 2026-05-04 10:12 | 23.69516 | 51.45370 | 24300 ft | 467 kts | 181° |
| 2026-05-04 10:12 | 23.66267 | 51.45381 | 24447 ft | 468 kts | 181° |
| 2026-05-04 10:12 | 23.62991 | 51.45392 | 24591 ft | 469 kts | 181° |
| 2026-05-04 10:12 | 23.59726 | 51.45403 | 24717 ft | 470 kts | 181° |
| 2026-05-04 10:13 | 23.56436 | 51.45414 | 24864 ft | 471 kts | 182° |
| 2026-05-04 10:13 | 23.53156 | 51.45425 | 25001 ft | 472 kts | 182° |
| 2026-05-04 10:13 | 23.49906 | 51.45436 | 25142 ft | 473 kts | 182° |
| 2026-05-04 10:13 | 23.46610 | 51.45449 | 25296 ft | 474 kts | 181° |
| 2026-05-04 10:14 | 23.43297 | 51.45486 | 25424 ft | 475 kts | 181° |
| 2026-05-04 10:14 | 23.39978 | 51.45540 | 25561 ft | 476 kts | 181° |
| 2026-05-04 10:16 | 23.16626 | 51.45928 | 26509 ft | 482 kts | 181° |
| 2026-05-04 10:16 | 23.13309 | 51.45970 | 26614 ft | 484 kts | 182° |
| 2026-05-04 10:16 | 23.09938 | 51.45778 | 26708 ft | 483 kts | 189° |
| 2026-05-04 10:16 | 23.06653 | 51.45053 | 26861 ft | 480 kts | 199° |
| 2026-05-04 10:17 | 23.03548 | 51.43725 | 26973 ft | 478 kts | 209° |
| 2026-05-04 10:17 | 23.00742 | 51.41797 | 27095 ft | 476 kts | 219° |
| 2026-05-04 10:19 | 22.87675 | 51.21414 | 27953 ft | 479 kts | 230° |
| 2026-05-04 10:19 | 22.85508 | 51.18671 | 28075 ft | 479 kts | 231° |
| 2026-05-04 10:19 | 22.83364 | 51.15899 | 28209 ft | 480 kts | 231° |
| 2026-05-04 10:19 | 22.81254 | 51.13096 | 28334 ft | 480 kts | 232° |
| 2026-05-04 10:20 | 22.79177 | 51.10254 | 28442 ft | 480 kts | 233° |
| 2026-05-04 10:20 | 22.77140 | 51.07377 | 28560 ft | 481 kts | 234° |
| 2026-05-04 10:20 | 22.75137 | 51.04453 | 28663 ft | 481 kts | 234° |
| 2026-05-04 10:20 | 22.73178 | 51.01495 | 28783 ft | 482 kts | 236° |
| 2026-05-04 10:21 | 22.71270 | 50.98512 | 28890 ft | 482 kts | 236° |
| 2026-05-04 10:21 | 22.69423 | 50.95519 | 28992 ft | 483 kts | 237° |
| 2026-05-04 10:21 | 22.65837 | 50.89363 | 29190 ft | 483 kts | 239° |
| 2026-05-04 10:22 | 22.62460 | 50.83073 | 29527 ft | 481 kts | 241° |
| 2026-05-04 10:22 | 22.60860 | 50.79892 | 29709 ft | 480 kts | 242° |
| 2026-05-04 10:22 | 22.59320 | 50.76685 | 29861 ft | 479 kts | 243° |
| 2026-05-04 10:23 | 22.57841 | 50.73453 | 29994 ft | 479 kts | 244° |
| 2026-05-04 10:23 | 22.56443 | 50.70233 | 30112 ft | 479 kts | 245° |
| 2026-05-04 10:25 | 22.48485 | 50.46618 | 31039 ft | 477 kts | 255° |
| 2026-05-04 10:25 | 22.47661 | 50.43136 | 31193 ft | 476 kts | 256° |
| 2026-05-04 10:25 | 22.46926 | 50.39628 | 31320 ft | 476 kts | 258° |
| 2026-05-04 10:25 | 22.46286 | 50.36104 | 31441 ft | 477 kts | 259° |
| 2026-05-04 10:26 | 22.45751 | 50.32609 | 31588 ft | 476 kts | 261° |
| 2026-05-04 10:26 | 22.45311 | 50.29056 | 31753 ft | 476 kts | 263° |
| 2026-05-04 10:26 | 22.44978 | 50.25484 | 31901 ft | 475 kts | 265° |
| 2026-05-04 10:26 | 22.44760 | 50.21916 | 32050 ft | 475 kts | 266° |
| 2026-05-04 10:27 | 22.44660 | 50.18345 | 32197 ft | 474 kts | 269° |
| 2026-05-04 10:27 | 22.44693 | 50.14819 | 32350 ft | 474 kts | 271° |
| 2026-05-04 10:27 | 22.44856 | 50.11263 | 32498 ft | 474 kts | 273° |
| 2026-05-04 10:27 | 22.45151 | 50.07708 | 32662 ft | 474 kts | 275° |
| 2026-05-04 10:28 | 22.45590 | 50.04173 | 32813 ft | 473 kts | 278° |
| 2026-05-04 10:28 | 22.46182 | 50.00669 | 32967 ft | 473 kts | 281° |
| 2026-05-04 10:28 | 22.46664 | 49.98368 | 33074 ft | 473 kts | 282° |
| 2026-05-04 10:28 | 22.47757 | 49.94163 | 33240 ft | 474 kts | 286° |
| 2026-05-04 10:29 | 22.48859 | 49.90789 | 33378 ft | 474 kts | 289° |
| 2026-05-04 10:29 | 22.50141 | 49.87543 | 33537 ft | 475 kts | 293° |
| 2026-05-04 10:29 | 22.51587 | 49.84322 | 33707 ft | 474 kts | 292° |
| 2026-05-04 10:30 | 22.53572 | 49.77528 | 33789 ft | 476 kts | 279° |
| 2026-05-04 10:30 | 22.54429 | 49.70426 | 33789 ft | 476 kts | 274° |
| 2026-05-04 10:31 | 22.54930 | 49.63281 | 33792 ft | 476 kts | 274° |
| 2026-05-04 10:32 | 22.57146 | 49.38362 | 33797 ft | 474 kts | 275° |
| 2026-05-04 10:33 | 22.57702 | 49.32454 | 33791 ft | 474 kts | 275° |
| 2026-05-04 10:33 | 22.58364 | 49.25352 | 33793 ft | 474 kts | 275° |
| 2026-05-04 10:34 | 22.59017 | 49.18288 | 33799 ft | 473 kts | 275° |
| 2026-05-04 10:34 | 22.59671 | 49.11179 | 33795 ft | 473 kts | 275° |
| 2026-05-04 10:35 | 22.60319 | 49.04121 | 33801 ft | 474 kts | 275° |
| 2026-05-04 10:35 | 22.60967 | 48.97010 | 33801 ft | 475 kts | 275° |
| 2026-05-04 10:36 | 22.61615 | 48.89868 | 33798 ft | 475 kts | 275° |
| 2026-05-04 10:36 | 22.62258 | 48.82750 | 33805 ft | 475 kts | 275° |
| 2026-05-04 10:37 | 22.62854 | 48.76126 | 33804 ft | 473 kts | 274° |
| 2026-05-04 10:37 | 22.63489 | 48.69026 | 33802 ft | 473 kts | 274° |
| 2026-05-04 10:39 | 22.65682 | 48.44221 | 33804 ft | 473 kts | 274° |
| 2026-05-04 10:40 | 22.66304 | 48.37111 | 33796 ft | 474 kts | 274° |
| 2026-05-04 10:40 | 22.66919 | 48.30036 | 33804 ft | 474 kts | 274° |
| 2026-05-04 10:41 | 22.67535 | 48.22920 | 33811 ft | 474 kts | 274° |
| 2026-05-04 10:41 | 22.68146 | 48.15827 | 33807 ft | 472 kts | 274° |
| 2026-05-04 10:42 | 22.68752 | 48.08746 | 33796 ft | 472 kts | 274° |
| 2026-05-04 10:42 | 22.69355 | 48.01694 | 33805 ft | 472 kts | 274° |
| 2026-05-04 10:43 | 22.69954 | 47.94607 | 33806 ft | 473 kts | 274° |
| 2026-05-04 10:45 | 22.72309 | 47.66211 | 33812 ft | 473 kts | 274° |
| 2026-05-04 10:45 | 22.72887 | 47.59156 | 33811 ft | 472 kts | 274° |
| 2026-05-04 10:46 | 22.73468 | 47.52044 | 33826 ft | 472 kts | 274° |
| 2026-05-04 10:46 | 22.74039 | 47.44990 | 33820 ft | 472 kts | 274° |
| 2026-05-04 10:47 | 22.74612 | 47.37893 | 33830 ft | 472 kts | 273° |
| 2026-05-04 10:47 | 22.75181 | 47.30796 | 33835 ft | 472 kts | 273° |
| 2026-05-04 10:49 | 22.77435 | 47.02459 | 33853 ft | 472 kts | 273° |
| 2026-05-04 10:50 | 22.77993 | 46.95369 | 33866 ft | 471 kts | 273° |
| 2026-05-04 10:52 | 22.80187 | 46.67106 | 33861 ft | 470 kts | 273° |
| 2026-05-04 10:52 | 22.80725 | 46.60076 | 33885 ft | 470 kts | 273° |
| 2026-05-04 10:54 | 22.82853 | 46.31849 | 33889 ft | 468 kts | 273° |
| 2026-05-04 10:56 | 22.84909 | 46.03719 | 33881 ft | 469 kts | 273° |
| 2026-05-04 10:57 | 22.85418 | 45.96656 | 33876 ft | 469 kts | 273° |
| 2026-05-04 10:57 | 22.85924 | 45.89602 | 33877 ft | 468 kts | 272° |
| 2026-05-04 10:58 | 22.86425 | 45.82573 | 33873 ft | 467 kts | 272° |
| 2026-05-04 10:58 | 22.86918 | 45.75598 | 33871 ft | 466 kts | 272° |
| 2026-05-04 10:59 | 22.87413 | 45.68564 | 33879 ft | 466 kts | 272° |
| 2026-05-04 10:59 | 22.87903 | 45.61546 | 33874 ft | 466 kts | 272° |
| 2026-05-04 11:00 | 22.88387 | 45.54571 | 33879 ft | 466 kts | 272° |
| 2026-05-04 11:02 | 22.90303 | 45.26550 | 33887 ft | 464 kts | 272° |
| 2026-05-04 11:05 | 22.93739 | 44.74212 | 33892 ft | 464 kts | 272° |
| 2026-05-04 11:06 | 22.94411 | 44.67244 | 33895 ft | 466 kts | 279° |
| 2026-05-04 11:06 | 22.96203 | 44.60470 | 33897 ft | 468 kts | 285° |
| 2026-05-04 11:10 | 23.10545 | 44.13933 | 35253 ft | 456 kts | 285° |
| 2026-05-04 11:12 | 23.17524 | 43.91017 | 35914 ft | 459 kts | 284° |
| 2026-05-04 11:12 | 23.18526 | 43.87717 | 35924 ft | 459 kts | 284° |
| 2026-05-04 11:12 | 23.20514 | 43.81166 | 35929 ft | 458 kts | 284° |
| 2026-05-04 11:13 | 23.22511 | 43.74572 | 35939 ft | 458 kts | 284° |
| 2026-05-04 11:13 | 23.24500 | 43.67992 | 35938 ft | 457 kts | 284° |
| 2026-05-04 11:16 | 23.34375 | 43.35167 | 35976 ft | 456 kts | 284° |
| 2026-05-04 11:16 | 23.36343 | 43.28592 | 35985 ft | 456 kts | 284° |
| 2026-05-04 11:17 | 23.38312 | 43.22000 | 36006 ft | 457 kts | 284° |
| 2026-05-04 11:19 | 23.46110 | 42.95753 | 36020 ft | 455 kts | 283° |
| 2026-05-04 11:19 | 23.47726 | 42.90284 | 36020 ft | 455 kts | 283° |
| 2026-05-04 11:20 | 23.49667 | 42.83707 | 36018 ft | 455 kts | 283° |
| 2026-05-04 11:20 | 23.51609 | 42.77118 | 36015 ft | 455 kts | 283° |
| 2026-05-04 11:22 | 23.59318 | 42.50905 | 36015 ft | 454 kts | 283° |
| 2026-05-04 11:23 | 23.61242 | 42.44334 | 36017 ft | 454 kts | 283° |
| 2026-05-04 11:25 | 23.67918 | 42.21452 | 36011 ft | 452 kts | 283° |
| 2026-05-04 11:25 | 23.69809 | 42.14909 | 36015 ft | 451 kts | 283° |
| 2026-05-04 11:27 | 23.78276 | 41.85587 | 36012 ft | 449 kts | 283° |
| 2026-05-04 11:28 | 23.80141 | 41.79112 | 36013 ft | 449 kts | 283° |
| 2026-05-04 11:28 | 23.82006 | 41.72640 | 36012 ft | 448 kts | 282° |
| 2026-05-04 11:29 | 23.83874 | 41.66123 | 36014 ft | 448 kts | 282° |
| 2026-05-04 11:29 | 23.85739 | 41.59602 | 36009 ft | 448 kts | 282° |
| 2026-05-04 11:33 | 23.98492 | 41.14640 | 36001 ft | 447 kts | 282° |
| 2026-05-04 11:33 | 24.00327 | 41.08138 | 36002 ft | 446 kts | 282° |
| 2026-05-04 11:34 | 24.02144 | 41.01686 | 36002 ft | 446 kts | 282° |
| 2026-05-04 11:34 | 24.03969 | 40.95194 | 35995 ft | 446 kts | 282° |
| 2026-05-04 11:35 | 24.05794 | 40.88702 | 35994 ft | 446 kts | 282° |
| 2026-05-04 11:35 | 24.07608 | 40.82223 | 35991 ft | 445 kts | 282° |
| 2026-05-04 11:36 | 24.09410 | 40.75772 | 35992 ft | 445 kts | 282° |
| 2026-05-04 11:36 | 24.11221 | 40.69284 | 35985 ft | 445 kts | 282° |
| 2026-05-04 11:37 | 24.13028 | 40.62801 | 35984 ft | 445 kts | 282° |
| 2026-05-04 11:37 | 24.14832 | 40.56317 | 35978 ft | 445 kts | 282° |
| 2026-05-04 11:38 | 24.16982 | 40.49960 | 35985 ft | 451 kts | 290° |
| 2026-05-04 11:38 | 24.19825 | 40.43789 | 35976 ft | 453 kts | 291° |
| 2026-05-04 11:39 | 24.22753 | 40.37711 | 35974 ft | 453 kts | 291° |
| 2026-05-04 11:41 | 24.33019 | 40.16316 | 35968 ft | 452 kts | 291° |
| 2026-05-04 11:41 | 24.35915 | 40.10238 | 35970 ft | 452 kts | 291° |
| 2026-05-04 11:42 | 24.38828 | 40.04119 | 35965 ft | 452 kts | 291° |
| 2026-05-04 11:42 | 24.41739 | 39.98000 | 35974 ft | 451 kts | 291° |
| 2026-05-04 11:43 | 24.44623 | 39.91926 | 35966 ft | 451 kts | 291° |
| 2026-05-04 11:43 | 24.47519 | 39.85819 | 35966 ft | 451 kts | 291° |
| 2026-05-04 11:44 | 24.50416 | 39.79702 | 35990 ft | 451 kts | 291° |
| 2026-05-04 11:44 | 24.53397 | 39.73701 | 35968 ft | 452 kts | 296° |
| 2026-05-04 11:45 | 24.57584 | 39.68409 | 35966 ft | 469 kts | 311° |
| 2026-05-04 11:45 | 24.62803 | 39.63983 | 35976 ft | 475 kts | 315° |
| 2026-05-04 11:46 | 24.68185 | 39.59736 | 35975 ft | 476 kts | 316° |
| 2026-05-04 11:46 | 24.73561 | 39.55504 | 35976 ft | 474 kts | 315° |
| 2026-05-04 11:47 | 24.78887 | 39.51270 | 35965 ft | 471 kts | 315° |
| 2026-05-04 11:47 | 24.84153 | 39.47051 | 35967 ft | 470 kts | 315° |
| 2026-05-04 11:48 | 24.89447 | 39.42803 | 35963 ft | 470 kts | 315° |
| 2026-05-04 11:48 | 24.94737 | 39.38549 | 35965 ft | 470 kts | 315° |
| 2026-05-04 11:49 | 24.99989 | 39.34327 | 35962 ft | 470 kts | 315° |
| 2026-05-04 11:49 | 25.05303 | 39.30051 | 35954 ft | 472 kts | 315° |
| 2026-05-04 11:50 | 25.10609 | 39.25779 | 35971 ft | 472 kts | 315° |
| 2026-05-04 11:50 | 25.15911 | 39.21505 | 35957 ft | 472 kts | 315° |
| 2026-05-04 11:51 | 25.21016 | 39.17084 | 35956 ft | 462 kts | 307° |
| 2026-05-04 11:51 | 25.24981 | 39.11698 | 35959 ft | 448 kts | 296° |
| 2026-05-04 11:52 | 25.28425 | 39.05953 | 35958 ft | 446 kts | 295° |
| 2026-05-04 11:52 | 25.31776 | 39.00163 | 35947 ft | 446 kts | 295° |
| 2026-05-04 11:53 | 25.35107 | 38.94415 | 35946 ft | 446 kts | 295° |
| 2026-05-04 11:53 | 25.38466 | 38.88648 | 35953 ft | 446 kts | 295° |
| 2026-05-04 11:55 | 25.51851 | 38.65648 | 35918 ft | 444 kts | 295° |
| 2026-05-04 11:56 | 25.55192 | 38.59890 | 35906 ft | 443 kts | 295° |
| 2026-05-04 11:56 | 25.58502 | 38.54177 | 35905 ft | 443 kts | 295° |
| 2026-05-04 11:57 | 25.61829 | 38.48427 | 35909 ft | 443 kts | 295° |
| 2026-05-04 11:57 | 25.65156 | 38.42670 | 35903 ft | 443 kts | 295° |
| 2026-05-04 11:58 | 25.68457 | 38.36951 | 35924 ft | 443 kts | 294° |
| 2026-05-04 11:58 | 25.71776 | 38.31195 | 35905 ft | 442 kts | 294° |
| 2026-05-04 11:59 | 25.75092 | 38.25436 | 35903 ft | 442 kts | 294° |
| 2026-05-04 11:59 | 25.78405 | 38.19677 | 35901 ft | 442 kts | 294° |
| 2026-05-04 12:00 | 25.81693 | 38.13950 | 35904 ft | 443 kts | 294° |
| 2026-05-04 12:00 | 25.85003 | 38.08184 | 35908 ft | 442 kts | 294° |
| 2026-05-04 12:01 | 25.88315 | 38.02403 | 35910 ft | 443 kts | 294° |
| 2026-05-04 12:02 | 25.99569 | 37.82071 | 35931 ft | 435 kts | 286° |
| 2026-05-04 12:03 | 26.01214 | 37.75716 | 35951 ft | 425 kts | 275° |
| 2026-05-04 12:03 | 26.02171 | 37.69234 | 35950 ft | 424 kts | 274° |
| 2026-05-04 12:04 | 26.03013 | 37.62770 | 35944 ft | 424 kts | 273° |
| 2026-05-04 12:04 | 26.03864 | 37.56282 | 35950 ft | 423 kts | 273° |
| 2026-05-04 12:05 | 26.04732 | 37.49783 | 35954 ft | 423 kts | 274° |
| 2026-05-04 12:05 | 26.05599 | 37.43343 | 35944 ft | 423 kts | 274° |
| 2026-05-04 12:06 | 26.06320 | 37.37947 | 35930 ft | 424 kts | 274° |
| 2026-05-04 12:06 | 26.07185 | 37.31446 | 35938 ft | 424 kts | 273° |
| 2026-05-04 12:07 | 26.08048 | 37.24953 | 35943 ft | 424 kts | 273° |
| 2026-05-04 12:07 | 26.08907 | 37.18461 | 35946 ft | 423 kts | 273° |
| 2026-05-04 12:08 | 26.09763 | 37.11981 | 35949 ft | 423 kts | 273° |
| 2026-05-04 12:08 | 26.10615 | 37.05491 | 35938 ft | 423 kts | 273° |
| 2026-05-04 12:09 | 26.11458 | 36.99059 | 35969 ft | 423 kts | 273° |
| 2026-05-04 12:09 | 26.12305 | 36.92579 | 35941 ft | 421 kts | 274° |
| 2026-05-04 12:10 | 26.13145 | 36.86116 | 35939 ft | 422 kts | 273° |
| 2026-05-04 12:10 | 26.13977 | 36.79695 | 35947 ft | 422 kts | 273° |
| 2026-05-04 12:11 | 26.14812 | 36.73224 | 35966 ft | 422 kts | 274° |
| 2026-05-04 12:11 | 26.15645 | 36.66752 | 35946 ft | 422 kts | 274° |
| 2026-05-04 12:12 | 26.16475 | 36.60274 | 35944 ft | 422 kts | 274° |
| 2026-05-04 12:12 | 26.17456 | 36.53871 | 35940 ft | 426 kts | 279° |
| 2026-05-04 12:14 | 26.32346 | 36.32179 | 35951 ft | 454 kts | 306° |
| 2026-05-04 12:15 | 26.36555 | 36.27369 | 35935 ft | 453 kts | 305° |
| 2026-05-04 12:15 | 26.40940 | 36.22312 | 35951 ft | 453 kts | 305° |
| 2026-05-04 12:16 | 26.45286 | 36.17281 | 35957 ft | 452 kts | 305° |
| 2026-05-04 12:16 | 26.49663 | 36.12208 | 35958 ft | 452 kts | 305° |
| 2026-05-04 12:17 | 26.54025 | 36.07149 | 35957 ft | 452 kts | 305° |
| 2026-05-04 12:17 | 26.58360 | 36.02115 | 35960 ft | 452 kts | 305° |
| 2026-05-04 12:18 | 26.62731 | 35.97035 | 35959 ft | 452 kts | 305° |
| 2026-05-04 12:18 | 26.67092 | 35.91960 | 35976 ft | 452 kts | 305° |
| 2026-05-04 12:19 | 26.71428 | 35.86910 | 35960 ft | 452 kts | 305° |
| 2026-05-04 12:19 | 26.75773 | 35.81842 | 35960 ft | 451 kts | 305° |
| 2026-05-04 12:20 | 26.80126 | 35.76763 | 35963 ft | 451 kts | 305° |
| 2026-05-04 12:20 | 26.84472 | 35.71686 | 35960 ft | 451 kts | 305° |
| 2026-05-04 12:21 | 26.88786 | 35.66632 | 35960 ft | 451 kts | 305° |
| 2026-05-04 12:21 | 26.93122 | 35.61549 | 35957 ft | 451 kts | 305° |
| 2026-05-04 12:22 | 26.97457 | 35.56462 | 35957 ft | 451 kts | 305° |
| 2026-05-04 12:22 | 27.01774 | 35.51392 | 35957 ft | 451 kts | 305° |
| 2026-05-04 12:23 | 27.06100 | 35.46305 | 35962 ft | 450 kts | 305° |
| 2026-05-04 12:23 | 27.10425 | 35.41215 | 35959 ft | 450 kts | 305° |
| 2026-05-04 12:24 | 27.14745 | 35.36121 | 35968 ft | 450 kts | 305° |
| 2026-05-04 12:24 | 27.19058 | 35.31031 | 35962 ft | 450 kts | 305° |
| 2026-05-04 12:25 | 27.23349 | 35.25961 | 35957 ft | 450 kts | 305° |
| 2026-05-04 12:25 | 27.27665 | 35.20856 | 35955 ft | 450 kts | 305° |
| 2026-05-04 12:26 | 27.31978 | 35.15747 | 35954 ft | 450 kts | 305° |
| 2026-05-04 12:26 | 27.36285 | 35.10640 | 35946 ft | 449 kts | 305° |
| 2026-05-04 12:27 | 27.40598 | 35.05520 | 35987 ft | 450 kts | 305° |
| 2026-05-04 12:27 | 27.44873 | 35.00439 | 35941 ft | 449 kts | 305° |
| 2026-05-04 12:28 | 27.49166 | 34.95330 | 35940 ft | 449 kts | 305° |
| 2026-05-04 12:28 | 27.53501 | 34.90252 | 35941 ft | 451 kts | 307° |
| 2026-05-04 12:29 | 27.58115 | 34.85411 | 35941 ft | 454 kts | 309° |
| 2026-05-04 12:29 | 27.62752 | 34.80647 | 35942 ft | 453 kts | 308° |
| 2026-05-04 12:30 | 27.67385 | 34.75807 | 35941 ft | 453 kts | 308° |
| 2026-05-04 12:30 | 27.71991 | 34.70936 | 35946 ft | 452 kts | 308° |
| 2026-05-04 12:31 | 27.76579 | 34.66066 | 35980 ft | 452 kts | 308° |
| 2026-05-04 12:31 | 27.81158 | 34.61202 | 35952 ft | 452 kts | 308° |
| 2026-05-04 12:32 | 27.88021 | 34.53904 | 35960 ft | 451 kts | 308° |
| 2026-05-04 12:33 | 27.92574 | 34.49056 | 35965 ft | 451 kts | 308° |
| 2026-05-04 12:33 | 27.97150 | 34.44177 | 35966 ft | 451 kts | 308° |
| 2026-05-04 12:34 | 28.01402 | 34.39094 | 35966 ft | 444 kts | 302° |
| 2026-05-04 12:34 | 28.05349 | 34.33727 | 35968 ft | 443 kts | 301° |
| 2026-05-04 12:35 | 28.09235 | 34.28321 | 35969 ft | 441 kts | 301° |
| 2026-05-04 12:35 | 28.13115 | 34.22923 | 35968 ft | 447 kts | 301° |
| 2026-05-04 12:36 | 28.17074 | 34.17427 | 35985 ft | 452 kts | 301° |
| 2026-05-04 12:36 | 28.21063 | 34.11896 | 35980 ft | 454 kts | 301° |